Latest Weather Observations for Badgerys Creek

IDN60801

Issued at 4:35 pm EST Tuesday 29 July 2014 (issued every 30 minutes, with the page automatically refreshed every 10 minutes)

About weather observations | Map of weather stations | Latest weather observations for NSW | Other Formats
Station Details ID: 067108 Name: BADGERYS CREEK AWS Lat: -33.90 Lon: 150.73 Height: 81.2 m
Data from the previous 72 hours. | See also: Recent months at Badgerys Creek
Date/Time
EST
Temp
°C
App
Temp
°C
Dew
Point
Rel
Hum
%
Delta-T
°C
Wind Press
QNH
hPa
Press
MSL
hPa
Rain
since 9 am
mm
Dir
 
Spd
km/h
Gust
km/h
Spd
kts
Gust
kts
29/04:30pm 20.6 15.1 2.0 29 8.6 NW 20 28 11 15 1014.0 - 0.0
29/04:00pm 21.5 16.0 1.7 27 9.2 W 20 26 11 14 1014.0 1014.1 0.0
29/03:30pm 22.1 16.2 1.7 26 9.5 W 22 32 12 17 1013.6 - 0.0
29/03:00pm 22.4 16.3 2.5 27 9.4 WNW 24 35 13 19 1012.7 1012.8 0.0
29/02:30pm 22.3 16.6 2.9 28 9.3 NW 22 32 12 17 1013.1 - 0.0
29/02:00pm 22.2 16.4 2.3 27 9.4 NW 22 32 12 17 1013.2 1013.3 0.0
29/01:30pm 22.3 16.4 3.9 30 9.0 NW 24 33 13 18 1013.5 - 0.0
29/01:00pm 21.8 15.8 3.5 30 8.8 NW 24 41 13 22 1013.9 1014.0 0.0
29/12:30pm 20.0 15.1 4.9 37 7.4 N 20 30 11 16 1014.1 - 0.0
29/12:00pm 19.0 14.1 5.1 40 6.8 N 20 30 11 16 1015.2 1015.3 0.0
29/11:30am 17.9 10.9 4.1 40 6.5 N 30 39 16 21 1015.5 - 0.0
29/11:00am 17.9 11.3 4.1 40 6.5 N 28 37 15 20 1016.3 1016.4 0.0
29/10:30am 16.7 11.7 4.7 45 5.7 N 20 30 11 16 1016.9 - 0.0
29/10:00am 15.2 11.5 6.2 55 4.4 N 15 20 8 11 1017.3 1017.4 0.0
29/09:30am 13.7 10.4 6.3 61 3.6 N 13 19 7 10 1017.8 - 0.0
29/09:00am 11.9 8.6 6.4 69 2.6 N 13 17 7 9 1018.0 1018.0 0.0
29/08:30am 10.9 7.9 6.1 72 2.2 N 11 15 6 8 1018.0 - 0.0
29/08:00am 10.9 7.7 5.2 68 2.6 N 11 15 6 8 1017.9 1017.9 0.0
29/07:30am 10.4 6.8 5.2 70 2.4 N 13 17 7 9 1018.0 - 0.0
29/07:00am 9.2 5.7 5.6 78 1.6 N 13 17 7 9 1018.1 1018.1 0.0
29/06:30am 9.4 6.6 5.2 75 1.9 NNW 9 11 5 6 1018.0 - 0.0
29/06:00am 9.6 6.1 5.4 75 1.9 NNW 13 15 7 8 1017.7 1017.7 0.0
29/05:30am 9.5 6.7 5.3 75 1.9 NNW 9 11 5 6 1017.7 - 0.0
29/05:00am 9.8 6.7 5.6 75 1.9 NNW 11 15 6 8 1017.6 1017.6 0.0
29/04:30am 9.4 6.7 5.6 77 1.7 NNW 9 11 5 6 1017.5 - 0.0
29/04:00am 9.4 6.4 5.8 78 1.6 NNW 11 15 6 8 1017.3 1017.4 0.0
29/03:30am 9.1 5.3 5.8 80 1.5 NNW 15 15 8 8 1017.3 - 0.0
29/03:00am 8.2 5.9 5.8 85 1.1 NNW 7 9 4 5 1017.6 1017.6 0.0
29/02:30am 7.6 5.0 5.9 89 0.8 N 9 9 5 5 1017.8 - 0.0
29/02:00am 7.9 5.5 5.4 84 1.1 N 7 7 4 4 1018.0 1018.0 0.0
29/01:30am 7.5 5.9 6.4 93 0.5 N 4 7 2 4 1018.1 - 0.0
29/01:00am 7.9 6.3 6.2 89 0.8 N 4 4 2 2 1018.0 1018.0 0.0
29/12:30am 9.1 8.3 6.4 83 1.3 CALM 0 0 0 0 1018.0 - 0.0
29/12:00am 8.1 7.2 6.1 87 0.9 N 0 0 0 0 1018.3 1018.3 0.0
 
Date/Time
EST
Temp
°C
App
Temp
°C
Dew
Point
Rel
Hum
%
Delta-T
°C
Wind Press
QNH
hPa
Press
MSL
hPa
Rain
since 9 am
mm
Dir
 
Spd
km/h
Gust
km/h
Spd
kts
Gust
kts
28/11:30pm 8.8 7.3 6.6 86 1.0 N 4 4 2 2 1018.6 - 0.0
28/11:00pm 9.1 6.6 6.7 85 1.1 N 9 9 5 5 1018.7 1018.8 0.0
28/10:30pm 10.8 8.9 6.6 75 2.0 N 6 7 3 4 1019.0 - 0.0
28/10:00pm 9.2 8.5 6.8 85 1.1 NNW 0 0 0 0 1019.4 1019.5 0.0
28/09:30pm 9.6 8.0 6.5 81 1.4 NNW 4 6 2 3 1019.4 - 0.0
28/09:00pm 11.8 9.4 6.9 72 2.3 NNW 9 11 5 6 1019.3 1019.4 0.0
28/08:30pm 11.0 9.5 6.9 76 2.0 NW 4 7 2 4 1019.1 - 0.0
28/08:00pm 10.6 9.0 6.2 74 2.1 NW 4 6 2 3 1019.2 1019.3 0.0
28/07:30pm 11.7 9.7 6.4 70 2.5 NW 6 7 3 4 1019.2 - 0.0
28/07:00pm 12.4 10.3 6.0 65 3.0 N 6 7 3 4 1019.0 1019.1 0.0
28/06:30pm 12.7 10.7 6.1 64 3.1 N 6 7 3 4 1019.1 - 0.0
28/06:00pm 12.9 11.7 6.3 64 3.1 N 2 4 1 2 1018.7 1018.8 0.0
28/05:30pm 14.1 11.9 5.5 56 4.1 N 6 7 3 4 1018.5 - 0.0
28/05:00pm 15.3 14.3 5.5 52 4.7 CALM 0 0 0 0 1018.2 1018.2 0.0
28/04:30pm 15.7 14.6 5.3 50 5.0 CALM 0 0 0 0 1018.0 - 0.0
28/04:00pm 15.8 14.2 6.5 54 4.5 N 4 4 2 2 1017.9 1017.9 0.0
28/03:30pm 16.2 13.9 5.8 50 5.0 N 7 9 4 5 1018.0 - 0.0
28/03:00pm 16.3 13.5 5.3 48 5.3 N 9 11 5 6 1018.1 1018.1 0.0
28/02:30pm 16.4 14.2 6.0 50 5.1 N 7 13 4 7 1018.1 - 0.0
28/02:00pm 16.4 14.3 5.7 49 5.2 NW 6 11 3 6 1018.3 1018.3 0.0
28/01:30pm 16.5 14.4 5.8 49 5.2 NNW 6 9 3 5 1018.4 - 0.0
28/01:00pm 16.9 14.9 4.6 44 5.8 NW 4 13 2 7 1018.7 1018.8 0.0
28/12:30pm 16.4 13.1 4.8 46 5.5 WNW 11 19 6 10 1019.5 - 0.0
28/12:00pm 15.9 12.0 5.2 49 5.1 W 15 22 8 12 1019.9 1020.0 0.0
28/11:30am 15.7 13.5 6.2 53 4.6 W 7 15 4 8 1020.5 - 0.0
28/11:00am 15.3 12.7 4.4 48 5.1 NW 7 13 4 7 1020.5 1020.6 0.0
28/10:30am 15.5 13.4 6.5 55 4.4 N 7 13 4 7 1020.9 - 0.0
28/10:00am 13.4 11.4 7.2 66 3.0 NNE 7 9 4 5 1021.3 1021.4 0.0
28/09:30am 12.2 10.0 6.3 67 2.8 NW 7 11 4 6 1021.3 - 0.0
28/09:00am 11.4 8.0 5.9 69 2.6 WNW 13 15 7 8 1021.4 1021.5 0.0
28/08:30am 8.4 6.6 7.8 96 0.3 NW 7 11 4 6 1021.4 - 0.0
28/08:00am 6.8 6.0 6.4 97 0.2 CALM 0 0 0 0 1021.5 1021.6 0.0
28/07:30am 5.8 3.7 5.7 99 0.0 NW 6 7 3 4 1021.8 - 0.0
28/07:00am 5.3 3.4 4.7 96 0.3 NW 4 6 2 3 1021.6 1021.7 0.0
28/06:30am 6.0 3.5 5.0 93 0.4 NW 7 9 4 5 1021.5 - 0.0
28/06:00am 6.2 4.4 5.3 94 0.4 NW 4 7 2 4 1020.9 1021.0 0.0
28/05:30am 6.4 3.3 5.5 94 0.4 NNW 11 15 6 8 1020.7 - 0.0
28/05:00am 5.5 3.5 4.3 92 0.5 N 4 7 2 4 1020.8 1020.9 0.0
28/04:30am 6.3 3.9 4.1 86 0.9 WSW 6 9 3 5 1020.7 - 0.0
28/04:00am 6.2 5.0 4.8 91 0.6 CALM 0 4 0 2 1020.8 1020.9 0.0
28/03:30am 5.5 3.8 4.2 91 0.6 SW 2 4 1 2 1020.9 - 0.0
28/03:00am 6.2 5.0 4.4 88 0.8 CALM 0 4 0 2 1021.2 1021.3 0.0
28/02:30am 6.8 3.9 4.6 86 1.0 WSW 9 11 5 6 1021.8 - 0.0
28/02:00am 6.0 3.0 4.0 87 0.8 SW 9 13 5 7 1021.8 1021.9 0.0
28/01:30am 5.8 2.8 4.3 90 0.6 SW 9 9 5 5 1021.5 - 0.0
28/01:00am 6.1 2.8 4.6 90 0.6 SW 11 13 6 7 1022.0 1022.1 0.0
28/12:30am 5.6 1.9 4.2 91 0.6 WSW 13 13 7 7 1022.1 - 0.0
28/12:00am 6.2 4.0 5.2 93 0.4 WSW 6 7 3 4 1021.6 1021.7 0.0
 
Date/Time
EST
Temp
°C
App
Temp
°C
Dew
Point
Rel
Hum
%
Delta-T
°C
Wind Press
QNH
hPa
Press
MSL
hPa
Rain
since 9 am
mm
Dir
 
Spd
km/h
Gust
km/h
Spd
kts
Gust
kts
27/11:30pm 5.2 3.4 3.2 87 0.8 NNW 2 6 1 3 1021.6 - 0.0
27/11:00pm 7.8 5.2 4.2 78 1.6 NNW 7 9 4 5 1022.0 1022.1 0.0
27/10:30pm 7.6 5.1 4.7 82 1.3 WNW 7 9 4 5 1022.4 - 0.0
27/10:00pm 8.0 5.6 5.1 82 1.3 ESE 7 9 4 5 1022.5 1022.6 0.0
27/09:30pm 8.4 6.1 5.0 79 1.5 ESE 6 7 3 4 1022.9 - 0.0
27/09:00pm 8.5 6.6 4.9 78 1.6 ESE 4 4 2 2 1023.0 1023.1 0.0
27/08:30pm 9.7 7.7 4.5 70 2.3 ESE 4 6 2 3 1023.4 - 0.0
27/08:00pm 11.8 9.5 4.8 62 3.2 ESE 6 7 3 4 1023.3 1023.4 0.0
27/07:30pm 12.1 9.8 5.0 62 3.3 ESE 6 7 3 4 1023.3 - 0.0
27/07:00pm 12.5 10.0 4.7 59 3.6 SSE 7 9 4 5 1023.3 1023.4 0.0
27/06:30pm 14.0 11.7 4.9 54 4.3 S 6 7 3 4 1022.8 - 0.0
27/06:00pm 14.5 11.7 5.0 53 4.4 SSW 9 15 5 8 1022.1 1022.2 0.0
27/05:30pm 14.9 12.2 5.4 53 4.5 SW 9 13 5 7 1022.1 - 0.0
27/05:00pm 16.9 14.0 4.9 45 5.7 SSW 9 13 5 7 1021.5 1021.6 0.0
27/04:30pm 18.0 14.7 4.6 41 6.4 S 11 17 6 9 1021.2 - 0.0
27/04:00pm 18.6 15.0 5.1 41 6.5 SSW 13 19 7 10 1021.1 1021.2 0.0
27/03:30pm 19.1 15.9 5.2 40 6.8 WSW 11 15 6 8 1021.1 - 0.0
27/03:00pm 19.1 16.0 5.6 41 6.6 SW 11 19 6 10 1021.1 1021.2 0.0
27/02:30pm 19.3 16.3 6.1 42 6.6 SW 11 19 6 10 1021.2 - 0.0
27/02:00pm 18.8 15.4 6.0 43 6.3 WSW 13 24 7 13 1021.5 1021.6 0.0
27/01:30pm 18.6 15.6 6.1 44 6.2 SW 11 22 6 12 1021.7 - 0.0
27/01:00pm 18.3 14.9 5.8 44 6.1 W 13 19 7 10 1022.0 1022.1 0.0
27/12:30pm 18.1 14.4 6.3 46 5.8 W 15 20 8 11 1022.5 - 0.0
27/12:00pm 17.7 14.8 6.3 47 5.6 SW 11 19 6 10 1023.1 1023.2 0.0
27/11:30am 17.3 13.5 5.9 47 5.6 SW 15 24 8 13 1023.8 - 0.0
27/11:00am 16.5 12.5 6.6 52 4.9 WSW 17 22 9 12 1024.3 1024.4 0.0
27/10:30am 15.9 12.2 6.3 53 4.7 SW 15 20 8 11 1024.7 - 0.0
27/10:00am 14.8 12.8 7.1 60 3.8 WSW 7 11 4 6 1025.0 1025.1 0.0
27/09:30am 12.0 11.8 9.0 82 1.5 CALM 0 4 0 2 1025.0 - 0.0
27/09:00am 10.8 10.0 8.2 84 1.3 N 2 4 1 2 1024.6 1024.7 2.2
27/08:30am 8.6 7.2 7.2 91 0.7 N 4 4 2 2 1024.6 - 2.2
27/08:00am 6.8 5.7 6.7 99 0.0 N 2 7 1 4 1024.6 1024.7 2.2
27/07:30am 5.1 3.6 5.0 99 0.0 N 2 4 1 2 1024.2 - 2.2
27/07:00am 3.8 2.4 3.5 98 0.1 CALM 0 0 0 0 1024.1 1024.2 2.2
27/06:30am 4.6 2.4 3.4 92 0.5 N 4 6 2 3 1023.8 - 2.2
27/06:00am 4.9 2.6 4.6 98 0.1 N 6 7 3 4 1023.5 1023.6 2.2
27/05:30am 4.0 1.4 3.4 96 0.2 SSE 6 7 3 4 1023.0 - 2.2
27/05:00am 4.9 2.1 2.9 87 0.8 SW 7 9 4 5 1022.7 1022.8 2.2
27/04:30am 6.5 5.0 4.8 89 0.7 S 2 4 1 2 1022.8 - 2.2
27/04:00am 6.5 4.7 5.6 94 0.4 S 4 6 2 3 1022.9 1023.0 2.2
27/03:30am 6.1 3.7 4.3 88 0.8 S 6 9 3 5 1022.9 - 2.2
27/03:00am 7.2 5.0 5.3 88 0.8 S 6 9 3 5 1023.0 1023.1 2.2
27/02:30am 7.3 4.9 4.3 81 1.3 SW 6 7 3 4 1023.1 - 2.2
27/02:00am 6.3 4.7 4.5 88 0.8 SW 2 6 1 3 1023.2 1023.3 2.2
27/01:30am 8.2 5.7 5.0 80 1.4 W 7 11 4 6 1023.2 - 2.2
27/01:00am 9.1 7.4 5.7 79 1.5 SW 4 6 2 3 1023.1 1023.2 2.2
27/12:30am 8.0 5.7 5.8 86 1.0 SSW 7 9 4 5 1023.2 - 2.2
27/12:00am 6.7 4.8 4.9 88 0.8 W 4 6 2 3 1023.4 1023.5 2.2
 
Date/Time
EST
Temp
°C
App
Temp
°C
Dew
Point
Rel
Hum
%
Delta-T
°C
Wind Press
QNH
hPa
Press
MSL
hPa
Rain
since 9 am
mm
Dir
 
Spd
km/h
Gust
km/h
Spd
kts
Gust
kts
26/11:30pm 8.0 6.3 6.1 88 0.9 W 4 6 2 3 1023.4 - 2.2
26/11:00pm 8.8 6.4 5.4 79 1.5 WNW 7 9 4 5 1023.4 1023.5 2.2
26/10:30pm 8.7 6.6 6.0 83 1.2 W 6 7 3 4 1023.5 - 2.2
26/10:00pm 8.6 6.3 5.5 81 1.4 W 7 11 4 6 1023.5 1023.6 2.2
26/09:30pm 9.8 7.2 6.2 78 1.7 W 9 11 5 6 1023.5 - 2.2
26/09:00pm 9.5 7.4 6.0 79 1.6 W 6 7 3 4 1023.4 1023.5 2.2
26/08:30pm 8.6 6.4 5.5 81 1.4 WSW 6 7 3 4 1023.3 - 2.2
26/08:00pm 11.4 9.9 5.1 65 2.9 WSW 2 6 1 3 1023.1 1023.2 2.2
26/07:30pm 11.6 10.5 5.0 64 3.0 CALM 0 4 0 2 1023.0 - 2.2
26/07:00pm 13.2 11.4 5.4 59 3.6 W 4 9 2 5 1022.7 1022.8 2.2
26/06:30pm 13.8 12.0 5.4 57 4.0 W 4 7 2 4 1022.4 - 2.2
26/06:00pm 13.2 10.6 5.9 61 3.4 WSW 9 15 5 8 1022.1 1022.2 2.2
26/05:30pm 15.1 11.3 5.9 54 4.4 W 15 26 8 14 1021.4 - 2.2
26/05:00pm 15.5 13.0 6.5 55 4.4 W 9 13 5 7 1021.3 1021.4 2.2

Other Formats:

Comma delimited format used in spreadsheet applications
http://www.bom.gov.au/fwo/IDN60801/IDN60801.94752.axf

JavaScript Object Notation format (JSON) in row-major order
http://www.bom.gov.au/fwo/IDN60801/IDN60801.94752.json